createdAt,value
2022-11-04T00:02:45.208Z,7.43
2022-11-04T00:08:05.467Z,6.07
2022-11-04T00:13:08.231Z,6.38
2022-11-04T00:18:12.178Z,6.32
2022-11-04T00:23:32.433Z,6.60
2022-11-04T00:28:44.366Z,9.55
2022-11-04T00:33:48.885Z,6.60
2022-11-04T00:38:51.364Z,7.85
2022-11-04T00:43:54.322Z,11.27
2022-11-04T00:48:58.376Z,12.88
2022-11-04T00:54:00.958Z,12.20
2022-11-04T00:59:03.384Z,13.23
2022-11-04T01:04:07.826Z,16.80
2022-11-04T01:09:12.106Z,18.50
2022-11-04T01:14:15.023Z,17.77
2022-11-04T01:19:18.854Z,17.33
2022-11-04T01:24:21.264Z,16.83
2022-11-04T01:29:23.691Z,20.35
2022-11-04T01:34:27.814Z,27.92
2022-11-04T01:39:31.321Z,26.98
2022-11-04T01:49:43.318Z,18.42
2022-11-04T01:54:47.431Z,22.60
2022-11-04T01:59:49.932Z,18.77
2022-11-04T02:04:53.740Z,21.85
2022-11-04T02:09:56.543Z,16.95
2022-11-04T02:14:59.328Z,15.17
2022-11-04T02:20:25.426Z,13.43
2022-11-04T02:25:40.561Z,13.07
2022-11-04T02:30:47.890Z,10.20
2022-11-04T02:35:56.591Z,8.00
2022-11-04T02:41:02.115Z,9.05
2022-11-04T02:46:07.340Z,7.95
2022-11-04T02:51:12.030Z,9.75
2022-11-04T02:56:16.174Z,10.18
2022-11-04T03:01:21.792Z,15.07
2022-11-04T03:06:25.950Z,22.05
2022-11-04T03:11:28.701Z,24.73
2022-11-04T03:16:36.771Z,23.40
2022-11-04T03:21:42.077Z,29.52
2022-11-04T03:26:48.130Z,32.85
2022-11-04T03:31:58.668Z,35.38
2022-11-04T03:37:01.201Z,38.42
2022-11-04T03:42:20.057Z,38.33
2022-11-04T03:47:25.596Z,43.03
2022-11-04T03:52:28.074Z,48.80
2022-11-04T03:57:42.793Z,49.92
2022-11-04T04:02:51.467Z,53.97
2022-11-04T04:07:56.885Z,59.88
2022-11-04T04:13:01.914Z,58.35
2022-11-04T04:18:08.298Z,58.85
2022-11-04T04:23:26.628Z,62.40
2022-11-04T04:28:29.100Z,61.20
2022-11-04T04:33:32.896Z,68.03
2022-11-04T04:38:53.973Z,75.05
2022-11-04T04:44:28.584Z,74.10
2022-11-04T04:49:35.347Z,74.82
2022-11-04T04:54:37.972Z,80.50
2022-11-04T04:59:40.341Z,86.80
2022-11-04T05:04:44.109Z,82.95
2022-11-04T05:09:46.666Z,85.75
2022-11-04T05:14:49.050Z,89.25
2022-11-04T05:19:52.812Z,84.50
2022-11-04T05:24:55.434Z,92.07
2022-11-04T05:29:57.867Z,107.50
2022-11-04T05:35:01.781Z,94.93
2022-11-04T05:40:04.605Z,101.07
2022-11-04T05:45:07.662Z,122.63
2022-11-04T05:50:11.519Z,107.53
2022-11-04T05:55:13.964Z,120.50
2022-11-04T06:00:17.604Z,121.35
2022-11-04T06:05:21.393Z,119.15
2022-11-04T06:10:24.453Z,107.68
2022-11-04T06:15:26.841Z,121.47
2022-11-04T06:20:30.669Z,111.32
2022-11-04T06:25:33.170Z,117.72
2022-11-04T06:30:35.823Z,109.53
2022-11-04T06:35:39.587Z,91.97
2022-11-04T06:40:42.048Z,82.70
2022-11-04T06:45:44.472Z,62.45
2022-11-04T06:50:48.278Z,68.13
2022-11-04T06:55:50.718Z,60.38
2022-11-04T07:00:53.833Z,64.10
2022-11-04T07:05:58.760Z,48.58
2022-11-04T07:11:01.169Z,46.85
2022-11-04T07:16:05.230Z,44.40
2022-11-04T07:21:10.296Z,56.05
2022-11-04T07:26:13.389Z,47.70
2022-11-04T07:31:16.981Z,51.08
2022-11-04T07:41:23.569Z,40.92
2022-11-04T07:46:26.097Z,30.15
2022-11-04T07:51:28.630Z,28.98
2022-11-04T07:56:32.394Z,30.55
2022-11-04T08:01:36.073Z,27.08
2022-11-04T08:06:39.047Z,23.48
2022-11-04T08:11:42.873Z,20.67
2022-11-04T08:16:45.305Z,19.10
2022-11-04T08:21:47.861Z,15.73
2022-11-04T08:26:52.387Z,12.50
2022-11-04T08:31:55.061Z,15.88
2022-11-04T08:36:59.825Z,13.70
2022-11-04T08:42:03.591Z,13.50
2022-11-04T08:47:06.127Z,15.45
2022-11-04T08:52:10.067Z,12.07
2022-11-04T08:57:13.940Z,14.50
2022-11-04T09:02:17.191Z,13.88
2022-11-04T09:07:19.755Z,14.73
2022-11-04T09:12:23.719Z,14.60
2022-11-04T09:17:26.198Z,17.60
2022-11-04T09:22:28.898Z,14.77
2022-11-04T09:27:32.739Z,18.10
2022-11-04T09:32:35.208Z,17.48
2022-11-04T09:37:37.905Z,12.37
2022-11-04T09:42:48.903Z,16.33
2022-11-04T09:47:53.233Z,13.50
2022-11-04T09:52:58.035Z,19.15
2022-11-04T09:58:01.942Z,22.00
2022-11-04T10:03:13.722Z,16.90
2022-11-04T10:08:24.687Z,19.38
2022-11-04T10:13:33.572Z,21.48
2022-11-04T10:18:43.396Z,14.95
2022-11-04T10:23:46.904Z,17.38
2022-11-04T10:28:53.516Z,15.50
2022-11-04T10:33:57.390Z,15.52
2022-11-04T10:39:02.844Z,14.35
2022-11-04T10:44:08.692Z,10.15
2022-11-04T10:49:25.503Z,9.93
2022-11-04T10:54:28.685Z,10.35
2022-11-04T10:59:35.870Z,10.98
2022-11-04T11:04:40.231Z,13.48
2022-11-04T11:09:53.505Z,13.57
2022-11-04T11:20:02.727Z,13.32
2022-11-04T11:25:15.647Z,10.52
2022-11-04T11:30:22.133Z,11.87
2022-11-04T11:35:27.880Z,12.43
2022-11-04T11:40:32.083Z,8.73
2022-11-04T11:45:34.889Z,9.70
2022-11-04T11:50:38.790Z,10.63
2022-11-04T11:55:43.725Z,11.63
2022-11-04T12:00:49.181Z,10.75
2022-11-04T12:11:17.784Z,11.43
2022-11-04T12:16:26.069Z,14.50
2022-11-04T12:21:33.698Z,12.50
2022-11-04T12:26:39.646Z,16.00
2022-11-04T12:31:47.290Z,18.40
2022-11-04T12:37:06.316Z,12.85
2022-11-04T12:42:21.839Z,12.57
2022-11-04T12:47:31.156Z,14.82
2022-11-04T12:52:43.858Z,12.98
2022-11-04T12:57:49.898Z,11.90
2022-11-04T13:02:57.620Z,14.23
2022-11-04T13:08:06.691Z,16.33
2022-11-04T13:13:13.121Z,13.30
2022-11-04T13:23:21.761Z,16.10
2022-11-04T13:28:24.402Z,18.02
2022-11-04T13:33:31.205Z,21.35
2022-11-04T13:38:37.357Z,18.40
2022-11-04T13:43:40.256Z,17.00
2022-11-04T13:48:51.407Z,17.55
2022-11-04T13:53:56.884Z,19.55
2022-11-04T13:59:01.307Z,16.65
2022-11-04T14:04:18.915Z,25.02
2022-11-04T14:09:33.866Z,18.02
2022-11-04T14:14:36.971Z,18.67
2022-11-04T14:19:49.799Z,19.27
2022-11-04T14:24:58.416Z,23.35
2022-11-04T14:30:01.363Z,19.25
2022-11-04T14:35:05.311Z,26.63
2022-11-04T14:40:24.188Z,28.55
2022-11-04T14:45:28.051Z,24.92
2022-11-04T14:50:30.446Z,20.30
2022-11-04T14:55:34.227Z,26.02
2022-11-04T15:00:38.222Z,20.85
2022-11-04T15:05:42.191Z,24.40
2022-11-04T15:10:50.078Z,19.70
2022-11-04T15:15:54.037Z,26.30
2022-11-04T15:20:57.950Z,28.30
2022-11-04T15:26:02.805Z,31.83
2022-11-04T15:31:07.386Z,27.55
2022-11-04T15:36:13.860Z,26.77
2022-11-04T15:41:38.541Z,21.60
2022-11-04T15:46:41.249Z,22.60
2022-11-04T15:51:43.845Z,24.98
2022-11-04T15:56:50.705Z,22.57
2022-11-04T16:01:53.903Z,27.73
2022-11-04T16:07:07.651Z,28.95
2022-11-04T16:12:16.234Z,27.17
2022-11-04T16:17:19.027Z,23.85
2022-11-04T16:22:24.920Z,40.83
2022-11-04T16:27:30.140Z,32.05
2022-11-04T16:32:44.208Z,31.70
2022-11-04T16:37:47.130Z,29.75
2022-11-04T16:42:51.442Z,28.60
2022-11-04T16:47:54.698Z,29.38
2022-11-04T16:52:57.367Z,35.13
2022-11-04T16:58:02.696Z,31.17
2022-11-04T17:03:13.752Z,28.65
2022-11-04T17:08:16.424Z,28.67
2022-11-04T17:13:36.010Z,31.07
2022-11-04T17:18:39.097Z,32.38
2022-11-04T17:23:41.835Z,34.33
2022-11-04T17:28:45.829Z,28.17
2022-11-04T17:33:48.731Z,17.08
2022-11-04T17:38:51.182Z,18.08
2022-11-04T17:44:04.959Z,15.77
2022-11-04T17:49:09.086Z,14.30
2022-11-04T17:54:11.732Z,13.23
2022-11-04T17:59:16.351Z,11.77
2022-11-04T18:04:19.713Z,11.02
2022-11-04T18:09:22.658Z,11.75
2022-11-04T18:14:26.786Z,17.52
2022-11-04T18:19:29.461Z,27.15
2022-11-04T18:24:32.207Z,32.90
2022-11-04T18:29:36.102Z,15.75
2022-11-04T18:34:38.869Z,12.52
2022-11-04T18:39:43.580Z,10.20
2022-11-04T18:44:48.610Z,10.88
2022-11-04T18:49:51.029Z,11.63
2022-11-04T18:54:53.535Z,9.80
2022-11-04T18:59:58.389Z,15.00
2022-11-04T19:05:01.002Z,12.50
2022-11-04T19:10:03.506Z,13.70
2022-11-04T19:15:08.254Z,15.75
2022-11-04T19:20:12.567Z,12.02
2022-11-04T19:25:15.329Z,13.40
2022-11-04T19:30:19.359Z,16.45
2022-11-04T19:35:21.808Z,18.45
2022-11-04T19:40:24.580Z,22.17
2022-11-04T19:45:28.688Z,15.57
2022-11-04T19:50:31.166Z,17.70
2022-11-04T19:55:33.607Z,13.98
2022-11-04T20:00:37.396Z,14.63
2022-11-04T20:05:40.459Z,16.13
2022-11-04T20:10:44.206Z,18.63
2022-11-04T20:15:48.209Z,16.13
2022-11-04T20:20:50.698Z,18.40
2022-11-04T20:25:53.267Z,20.92
2022-11-04T20:30:57.109Z,30.63
2022-11-04T20:36:01.578Z,26.75
2022-11-04T20:41:05.068Z,20.02
2022-11-04T20:46:10.263Z,18.83
2022-11-04T20:51:13.737Z,27.73
2022-11-04T20:56:17.358Z,20.90
2022-11-04T21:06:25.136Z,19.70
2022-11-04T21:11:32.163Z,16.27
2022-11-04T21:16:35.552Z,23.90
2022-11-04T21:21:40.870Z,20.25
2022-11-04T21:26:43.748Z,25.17
2022-11-04T21:31:46.929Z,19.40
2022-11-04T21:36:53.251Z,28.52
2022-11-04T21:41:56.720Z,23.05
2022-11-04T21:46:59.139Z,25.65
2022-11-04T21:52:05.732Z,25.67
2022-11-04T21:57:08.231Z,30.30
2022-11-04T22:02:10.807Z,30.10
2022-11-04T22:07:14.921Z,32.57
2022-11-04T22:12:17.498Z,40.80
2022-11-04T22:17:19.951Z,45.75
2022-11-04T22:22:23.903Z,35.67
2022-11-04T22:27:26.357Z,30.67
2022-11-04T22:32:29.005Z,27.52
2022-11-04T22:37:33.151Z,21.80
2022-11-04T22:42:35.615Z,28.38
2022-11-04T22:47:38.496Z,26.40
2022-11-04T22:52:42.434Z,32.43
2022-11-04T22:57:45.141Z,36.20
2022-11-04T23:02:47.654Z,43.20
2022-11-04T23:07:51.510Z,34.92
2022-11-04T23:13:11.608Z,31.40
2022-11-04T23:18:32.046Z,29.73
2022-11-04T23:23:53.367Z,31.05
2022-11-04T23:29:13.178Z,25.83
2022-11-04T23:34:32.884Z,35.20
2022-11-04T23:39:36.699Z,37.03
2022-11-04T23:44:56.642Z,38.28
2022-11-04T23:50:16.410Z,38.40
2022-11-04T23:55:40.202Z,32.90
